Time;durP1;ratioP1;P1;durP2;ratioP2;P2;SDS_P1;SDS_P2;PMS_P1;PMS_P2;Temp;Humidity;BMP_temperature;BMP_pressure;BME280_temperature;BME280_humidity;BME280_pressure;Samples;Min_cycle;Max_cycle;Signal;HPM_P1;HPM_P2
2023/07/28 00:01:48;;;;;;;5.03;2.45;;;21.80;51.70;;;;;;6118622;28;83113;-60
2023/07/28 00:04:48;;;;;;;4.88;2.10;;;21.80;51.80;;;;;;6122556;28;81019;-60
2023/07/28 00:07:49;;;;;;;6.35;2.72;;;21.80;51.60;;;;;;6096130;28;80286;-60
2023/07/28 00:10:49;;;;;;;3.50;2.65;;;21.80;51.70;;;;;;6120029;28;81654;-61
2023/07/28 00:13:50;;;;;;;3.22;2.08;;;21.80;51.80;;;;;;6099772;28;82431;-60
2023/07/28 00:16:50;;;;;;;3.67;2.33;;;21.80;51.80;;;;;;6114324;28;80553;-60
2023/07/28 00:19:51;;;;;;;3.60;2.40;;;21.80;51.60;;;;;;6114600;28;80638;-62
2023/07/28 00:22:51;;;;;;;2.55;2.25;;;21.80;51.70;;;;;;6114684;28;80098;-62
2023/07/28 00:25:52;;;;;;;4.00;2.08;;;21.80;51.80;;;;;;6116561;28;80661;-61
2023/07/28 00:28:52;;;;;;;3.78;2.40;;;21.70;51.90;;;;;;6095161;28;82598;-61
2023/07/28 00:31:53;;;;;;;2.78;2.45;;;21.70;52.00;;;;;;6115478;28;81095;-61
2023/07/28 00:34:53;;;;;;;3.90;2.20;;;21.50;52.20;;;;;;6118390;28;82190;-62
2023/07/28 00:37:54;;;;;;;7.55;2.53;;;21.60;52.20;;;;;;6127350;28;80907;-60
2023/07/28 00:40:55;;;;;;;3.40;1.95;;;21.50;52.30;;;;;;6127691;28;80587;-60
2023/07/28 00:43:55;;;;;;;6.68;2.28;;;21.40;52.20;;;;;;6142502;28;82367;-69
2023/07/28 00:46:56;;;;;;;3.88;2.38;;;21.40;52.30;;;;;;6124024;28;81881;-64
2023/07/28 00:49:56;;;;;;;3.30;1.90;;;21.30;52.20;;;;;;6117058;28;81723;-65
2023/07/28 00:52:57;;;;;;;6.97;2.15;;;21.30;52.40;;;;;;6126830;28;80639;-65
2023/07/28 00:55:57;;;;;;;2.38;2.00;;;21.30;52.30;;;;;;6098483;28;83754;-67
2023/07/28 00:58:58;;;;;;;3.92;2.20;;;21.40;53.00;;;;;;6120867;28;80853;-66
2023/07/28 01:01:59;;;;;;;3.45;2.40;;;21.40;52.40;;;;;;6104815;28;80655;-62
2023/07/28 01:04:59;;;;;;;4.80;2.15;;;21.40;52.30;;;;;;6122774;28;83260;-60
2023/07/28 01:08:00;;;;;;;3.05;2.22;;;21.40;52.40;;;;;;6126012;28;83478;-62
2023/07/28 01:11:00;;;;;;;3.05;2.08;;;21.40;52.50;;;;;;6141956;28;80383;-62
2023/07/28 01:14:01;;;;;;;7.97;2.05;;;21.30;52.50;;;;;;6108645;28;81603;-62
2023/07/28 01:17:01;;;;;;;4.53;2.33;;;21.30;52.70;;;;;;6123267;28;82531;-63
2023/07/28 01:20:03;;;;;;;2.97;2.17;;;21.30;52.70;;;;;;6139113;28;85014;-62
2023/07/28 01:23:03;;;;;;;4.70;2.45;;;21.30;52.90;;;;;;6135563;28;80532;-61
2023/07/28 01:26:05;;;;;;;2.25;1.95;;;21.30;53.00;;;;;;6127222;28;83045;-63
2023/07/28 01:29:05;;;;;;;3.28;2.33;;;21.30;53.10;;;;;;6142435;28;80276;-62
2023/07/28 01:32:06;;;;;;;3.47;2.20;;;21.30;53.10;;;;;;6119973;28;81942;-61
2023/07/28 01:35:06;;;;;;;6.35;2.65;;;21.30;53.20;;;;;;6106040;28;80599;-62
2023/07/28 01:38:07;;;;;;;4.32;2.30;;;21.30;53.10;;;;;;6099538;28;80897;-62
2023/07/28 01:41:07;;;;;;;3.95;2.42;;;21.20;53.20;;;;;;6114865;28;81774;-62
2023/07/28 01:44:08;;;;;;;3.42;1.90;;;21.30;53.20;;;;;;6109658;28;83259;-61
2023/07/28 01:47:08;;;;;;;3.63;2.10;;;21.40;53.00;;;;;;6107845;28;80859;-62
2023/07/28 01:50:09;;;;;;;5.00;1.92;;;21.40;53.00;;;;;;6120569;28;81681;-62
2023/07/28 01:53:10;;;;;;;5.30;1.92;;;21.40;53.20;;;;;;6103278;28;80853;-63
2023/07/28 01:56:10;;;;;;;4.53;2.50;;;21.40;54.00;;;;;;6118464;28;81297;-63
2023/07/28 01:59:11;;;;;;;3.45;2.30;;;21.40;53.40;;;;;;6119479;28;82616;-60
2023/07/28 02:02:11;;;;;;;5.32;2.30;;;21.50;53.40;;;;;;6112701;28;83450;-60
2023/07/28 02:05:12;;;;;;;3.35;1.77;;;21.50;53.40;;;;;;6111861;28;83444;-59
2023/07/28 02:08:13;;;;;;;2.10;1.70;;;21.50;53.60;;;;;;6106970;28;80871;-60
2023/07/28 02:11:13;;;;;;;3.63;1.80;;;21.40;53.70;;;;;;6129590;28;81217;-59
2023/07/28 02:14:14;;;;;;;5.28;2.45;;;21.40;54.00;;;;;;6119320;28;82244;-59
2023/07/28 02:17:14;;;;;;;3.45;1.92;;;21.30;54.20;;;;;;6127764;28;81183;-61
2023/07/28 02:20:15;;;;;;;2.67;1.98;;;21.30;54.40;;;;;;6091990;28;82750;-60
2023/07/28 02:23:16;;;;;;;2.40;1.88;;;21.30;54.50;;;;;;6128065;28;81234;-63
2023/07/28 02:26:16;;;;;;;4.20;2.20;;;21.30;54.50;;;;;;6115429;28;84302;-63
2023/07/28 02:29:17;;;;;;;2.67;2.00;;;21.70;54.30;;;;;;6116487;28;82928;-63
2023/07/28 02:32:18;;;;;;;2.75;1.85;;;22.00;53.90;;;;;;6122013;28;83216;-64
2023/07/28 02:35:18;;;;;;;4.47;2.20;;;22.20;53.50;;;;;;6116443;28;84033;-63
2023/07/28 02:38:19;;;;;;;2.85;2.00;;;22.40;53.30;;;;;;6108808;28;81046;-64
2023/07/28 02:41:20;;;;;;;2.47;1.98;;;22.60;53.10;;;;;;6118597;28;83478;-65
2023/07/28 02:44:20;;;;;;;1.83;1.63;;;22.70;53.00;;;;;;6124327;28;83069;-64
2023/07/28 02:47:21;;;;;;;3.40;1.83;;;22.80;52.70;;;;;;6100515;28;82150;-63
2023/07/28 02:50:22;;;;;;;2.47;1.98;;;22.90;52.80;;;;;;6108646;28;82580;-61
2023/07/28 02:53:23;;;;;;;1.80;1.60;;;23.00;52.80;;;;;;6114776;28;83949;-63
2023/07/28 02:56:23;;;;;;;2.33;1.55;;;23.00;52.60;;;;;;6116307;28;82177;-63
2023/07/28 02:59:24;;;;;;;2.65;2.10;;;23.10;52.60;;;;;;6128680;28;80999;-65
2023/07/28 03:02:26;;;;;;;3.28;2.00;;;23.10;52.50;;;;;;6123292;28;82713;-63
2023/07/28 03:05:29;;;;;;;3.80;1.60;;;23.20;52.40;;;;;;6119386;28;81689;-62
2023/07/28 03:08:56;;;;;;;3.03;1.92;;;23.20;52.40;;;;;;6114029;28;80928;-63
2023/07/28 03:12:15;;;;;;;2.00;1.80;;;23.30;52.30;;;;;;6106812;28;81052;-62
2023/07/28 03:15:15;;;;;;;3.08;2.28;;;23.30;52.20;;;;;;6108740;28;83626;-62
2023/07/28 03:18:16;;;;;;;3.15;2.10;;;23.40;52.20;;;;;;6100039;28;87314;-63
2023/07/28 03:21:17;;;;;;;2.60;2.05;;;23.40;52.30;;;;;;6133360;28;83783;-63
2023/07/28 03:24:17;;;;;;;4.32;1.80;;;23.40;52.30;;;;;;6118152;28;80587;-64
2023/07/28 03:27:18;;;;;;;4.50;2.28;;;23.40;52.20;;;;;;6154898;28;81497;-64
2023/07/28 03:30:18;;;;;;;3.15;2.08;;;23.50;52.30;;;;;;6153665;28;83029;-64
2023/07/28 03:33:19;;;;;;;7.15;2.05;;;23.50;52.30;;;;;;6144719;28;83502;-64
2023/07/28 03:36:19;;;;;;;5.13;2.10;;;23.50;52.30;;;;;;6141208;28;81160;-63
2023/07/28 03:39:20;;;;;;;2.25;1.92;;;23.50;52.30;;;;;;6134543;28;81779;-63
2023/07/28 03:42:22;;;;;;;2.97;1.83;;;23.50;52.20;;;;;;6134193;28;83649;-64
2023/07/28 03:45:23;;;;;;;5.30;2.35;;;23.50;52.50;;;;;;6126157;28;80412;-65
2023/07/28 03:48:23;;;;;;;3.47;2.13;;;23.50;52.30;;;;;;6127080;28;81936;-64
2023/07/28 03:51:24;;;;;;;3.92;2.28;;;23.50;52.20;;;;;;6115946;28;82975;-62
2023/07/28 03:54:24;;;;;;;3.70;2.10;;;23.60;52.30;;;;;;6125982;28;80849;-67
2023/07/28 03:57:25;;;;;;;2.53;2.00;;;23.60;52.30;;;;;;6124409;28;83572;-67
2023/07/28 04:00:25;;;;;;;3.03;2.20;;;23.60;52.40;;;;;;6114996;28;83893;-64
2023/07/28 04:03:26;;;;;;;2.65;1.77;;;23.60;52.20;;;;;;6122424;28;80491;-66
2023/07/28 04:06:27;;;;;;;2.50;1.92;;;23.60;52.30;;;;;;6101298;28;82429;-66
2023/07/28 04:09:27;;;;;;;3.08;2.05;;;23.60;52.40;;;;;;6126989;28;81472;-62
2023/07/28 04:12:28;;;;;;;2.83;2.10;;;23.60;52.40;;;;;;6105867;28;83809;-65
2023/07/28 04:15:30;;;;;;;4.03;1.88;;;23.60;52.50;;;;;;6098709;28;83251;-65
2023/07/28 04:18:31;;;;;;;4.40;1.90;;;23.60;52.60;;;;;;6126548;28;80563;-65
2023/07/28 04:21:32;;;;;;;2.92;1.95;;;23.60;52.60;;;;;;6102786;28;83716;-63
2023/07/28 04:24:32;;;;;;;4.95;1.98;;;23.60;52.80;;;;;;6112104;28;83288;-65
2023/07/28 04:27:33;;;;;;;2.63;1.60;;;23.60;52.70;;;;;;6093864;28;82953;-63
2023/07/28 04:30:36;;;;;;;4.60;2.03;;;23.50;52.70;;;;;;6120909;28;82746;-62
2023/07/28 04:33:37;;;;;;;4.60;2.03;;;23.50;52.80;;;;;;6095616;28;82680;-62
2023/07/28 04:36:38;;;;;;;4.15;2.03;;;23.40;53.10;;;;;;6103948;28;82733;-62
2023/07/28 04:39:38;;;;;;;6.78;2.30;;;23.40;53.00;;;;;;6116653;28;83977;-62
2023/07/28 04:42:39;;;;;;;6.10;2.53;;;23.40;53.00;;;;;;6124104;28;83494;-63
2023/07/28 04:45:41;;;;;;;7.22;2.00;;;23.50;53.10;;;;;;6114303;28;82212;-61
2023/07/28 04:48:48;;;;;;;8.63;2.60;;;23.50;53.20;;;;;;6122181;28;81670;-61
2023/07/28 04:52:07;;;;;;;3.78;2.45;;;23.50;53.10;;;;;;6119353;28;80125;-62
2023/07/28 04:55:19;;;;;;;5.90;2.42;;;23.60;53.60;;;;;;6122828;28;83510;-66
2023/07/28 04:58:21;;;;;;;4.63;2.10;;;23.60;53.80;;;;;;6153853;28;82996;-61
2023/07/28 05:01:24;;;;;;;2.65;2.08;;;23.60;54.10;;;;;;6152917;28;82974;-60
2023/07/28 05:04:26;;;;;;;8.95;2.47;;;23.70;54.10;;;;;;6125652;28;83803;-59
2023/07/28 05:07:28;;;;;;;4.03;1.73;;;23.70;54.00;;;;;;6124394;28;83206;-59
2023/07/28 05:10:29;;;;;;;6.07;2.10;;;23.70;54.40;;;;;;6115333;28;80456;-62
2023/07/28 05:13:30;;;;;;;5.68;2.40;;;23.70;54.50;;;;;;6125696;28;81808;-60
2023/07/28 05:16:31;;;;;;;3.47;2.05;;;23.80;54.50;;;;;;6116952;28;83303;-60
2023/07/28 05:19:38;;;;;;;6.38;2.40;;;23.80;54.60;;;;;;6116060;28;84463;-67
2023/07/28 05:22:57;;;;;;;5.82;2.80;;;23.90;54.80;;;;;;6109577;28;82471;-67
2023/07/28 05:26:01;;;;;;;5.78;1.90;;;23.90;55.10;;;;;;6116989;28;82368;-65
2023/07/28 05:29:02;;;;;;;3.67;2.42;;;23.90;54.60;;;;;;6149372;28;83924;-67
2023/07/28 05:32:03;;;;;;;5.15;1.98;;;23.90;54.70;;;;;;6117131;28;82872;-66
2023/07/28 05:35:11;;;;;;;6.55;2.25;;;23.90;54.80;;;;;;6111537;28;83073;-64
2023/07/28 05:38:11;;;;;;;8.35;2.38;;;23.90;55.00;;;;;;6117160;28;83154;-64
2023/07/28 05:41:12;;;;;;;2.72;1.65;;;23.90;54.80;;;;;;6127741;28;80588;-64
2023/07/28 05:44:12;;;;;;;8.55;2.58;;;23.90;54.80;;;;;;6113221;28;82816;-66
2023/07/28 05:47:13;;;;;;;5.05;2.08;;;23.90;54.90;;;;;;6119529;28;83484;-67
2023/07/28 05:50:13;;;;;;;6.57;2.03;;;23.90;54.60;;;;;;6118977;28;82414;-66
2023/07/28 05:53:14;;;;;;;4.30;1.83;;;23.90;54.60;;;;;;6110720;28;83502;-66
2023/07/28 05:56:14;;;;;;;8.00;2.00;;;23.90;54.60;;;;;;6068968;28;84428;-61
2023/07/28 05:59:15;;;;;;;5.60;2.40;;;23.90;54.80;;;;;;6113991;28;82672;-59
2023/07/28 06:02:16;;;;;;;4.53;2.05;;;23.90;54.80;;;;;;6122993;28;83043;-59
2023/07/28 06:05:24;;;;;;;6.00;1.85;;;23.90;55.00;;;;;;6103726;28;82463;-61
2023/07/28 06:08:25;;;;;;;6.32;2.40;;;23.90;55.00;;;;;;6116640;28;82969;-60
2023/07/28 06:11:26;;;;;;;5.22;2.08;;;23.90;55.00;;;;;;6104031;28;81994;-60
2023/07/28 06:14:26;;;;;;;7.55;2.50;;;23.90;55.10;;;;;;6114911;28;82546;-59
2023/07/28 06:17:28;;;;;;;4.55;2.63;;;23.90;55.10;;;;;;6106143;28;82284;-60
2023/07/28 06:20:29;;;;;;;6.22;2.72;;;23.90;55.10;;;;;;6106474;28;81030;-60
2023/07/28 06:23:29;;;;;;;5.28;2.40;;;23.80;55.20;;;;;;6118610;28;82126;-59
2023/07/28 06:26:31;;;;;;;3.70;1.95;;;23.90;55.40;;;;;;6105664;28;83242;-59
2023/07/28 06:29:32;;;;;;;6.47;2.40;;;23.90;55.40;;;;;;6135016;28;80721;-61
2023/07/28 06:32:32;;;;;;;5.68;2.22;;;23.90;55.60;;;;;;6135094;28;83411;-64
2023/07/28 06:35:33;;;;;;;5.22;2.33;;;23.90;55.70;;;;;;6131169;28;83642;-67
2023/07/28 06:38:34;;;;;;;7.47;2.50;;;24.00;55.60;;;;;;6127944;28;83944;-65
2023/07/28 06:41:34;;;;;;;10.45;2.10;;;24.00;55.90;;;;;;6118744;28;82791;-65
2023/07/28 06:44:35;;;;;;;3.90;2.25;;;24.00;55.90;;;;;;6109929;28;83020;-66
2023/07/28 06:47:35;;;;;;;4.00;2.03;;;24.00;56.00;;;;;;6106671;28;80630;-66
2023/07/28 06:50:36;;;;;;;7.30;2.28;;;24.00;56.10;;;;;;6121764;28;83125;-60
2023/07/28 06:53:36;;;;;;;6.45;2.25;;;24.00;55.90;;;;;;6095691;28;80473;-58
2023/07/28 06:56:37;;;;;;;13.80;2.30;;;24.00;55.90;;;;;;6106419;28;82668;-61
2023/07/28 06:59:37;;;;;;;4.25;1.98;;;24.00;55.90;;;;;;6109020;28;80473;-66
2023/07/28 07:02:38;;;;;;;3.78;2.00;;;24.00;55.90;;;;;;6100735;28;81237;-63
2023/07/28 07:05:39;;;;;;;5.28;2.20;;;24.00;56.00;;;;;;6113997;28;81464;-62
2023/07/28 07:08:39;;;;;;;6.75;2.15;;;24.00;56.00;;;;;;6125660;28;81758;-61
2023/07/28 07:11:40;;;;;;;3.67;2.30;;;24.00;56.00;;;;;;6120474;28;81096;-60
2023/07/28 07:14:40;;;;;;;3.17;2.17;;;23.90;56.10;;;;;;6112635;28;81338;-61
2023/07/28 07:17:41;;;;;;;4.15;2.30;;;24.00;56.60;;;;;;6112176;28;80807;-61
2023/07/28 07:20:41;;;;;;;3.47;2.08;;;24.00;57.20;;;;;;6117562;28;81951;-61
2023/07/28 07:23:42;;;;;;;4.47;2.60;;;24.00;57.30;;;;;;6098359;28;82255;-60
2023/07/28 07:26:59;;;;;;;3.50;2.38;;;24.10;57.70;;;;;;6123596;28;83466;-61
2023/07/28 07:29:59;;;;;;;2.78;1.92;;;24.10;57.70;;;;;;6112191;28;81458;-61
2023/07/28 07:33:00;;;;;;;7.75;1.98;;;24.10;57.50;;;;;;6121793;28;80776;-59
2023/07/28 07:36:00;;;;;;;3.28;2.33;;;24.10;57.60;;;;;;6120688;28;80392;-60
2023/07/28 07:39:01;;;;;;;3.63;2.00;;;24.10;57.70;;;;;;6109986;28;83175;-60
2023/07/28 07:42:01;;;;;;;5.57;2.00;;;24.10;57.80;;;;;;6128219;28;81269;-61
2023/07/28 07:45:02;;;;;;;3.78;2.20;;;24.20;58.30;;;;;;6117613;28;82388;-62
2023/07/28 07:48:03;;;;;;;4.63;2.42;;;24.20;58.50;;;;;;6129217;28;83307;-59
2023/07/28 07:51:03;;;;;;;2.53;1.88;;;24.10;58.60;;;;;;6111645;28;81742;-60
2023/07/28 07:54:04;;;;;;;6.45;2.30;;;24.10;58.90;;;;;;6105927;28;80668;-61
2023/07/28 07:57:05;;;;;;;4.28;2.28;;;24.10;59.00;;;;;;6115842;28;83376;-61
2023/07/28 08:00:05;;;;;;;4.70;2.50;;;24.10;59.30;;;;;;6102960;28;82181;-60
2023/07/28 08:03:13;;;;;;;5.72;2.42;;;24.10;59.60;;;;;;6113149;28;80394;-59
2023/07/28 08:06:13;;;;;;;3.55;2.33;;;24.10;59.80;;;;;;6113875;28;82912;-60
2023/07/28 08:09:14;;;;;;;9.13;2.97;;;24.10;60.10;;;;;;6116906;28;80462;-60
2023/07/28 08:12:14;;;;;;;7.07;3.03;;;24.10;60.30;;;;;;6094208;28;81559;-61
2023/07/28 08:15:15;;;;;;;6.32;2.50;;;24.10;60.60;;;;;;6110365;28;80035;-62
2023/07/28 08:18:15;;;;;;;4.38;2.85;;;24.10;61.00;;;;;;6109189;28;80316;-62
2023/07/28 08:21:16;;;;;;;6.18;2.80;;;24.10;61.00;;;;;;6109141;28;81292;-60
2023/07/28 08:24:16;;;;;;;3.55;2.30;;;24.10;61.20;;;;;;6117869;28;80539;-66
2023/07/28 08:27:17;;;;;;;4.90;3.05;;;24.10;61.30;;;;;;6106454;28;82526;-62
2023/07/28 08:30:17;;;;;;;6.53;2.90;;;24.10;61.50;;;;;;6112469;28;80290;-68
2023/07/28 08:33:18;;;;;;;5.70;2.60;;;24.10;61.60;;;;;;6130282;28;82809;-66
2023/07/28 08:36:18;;;;;;;5.60;2.67;;;24.10;61.80;;;;;;6129974;28;81654;-73
2023/07/28 08:39:19;;;;;;;5.97;2.90;;;24.00;62.30;;;;;;6124070;28;81483;-73
2023/07/28 08:42:20;;;;;;;8.90;3.22;;;23.90;62.70;;;;;;6102271;28;81848;-63
2023/07/28 08:45:20;;;;;;;7.55;2.40;;;24.00;63.10;;;;;;6120271;28;80926;-62
2023/07/28 08:48:21;;;;;;;2.70;2.08;;;23.80;63.80;;;;;;6106144;28;81963;-62
2023/07/28 08:51:22;;;;;;;3.78;2.08;;;23.30;65.80;;;;;;6106650;28;81072;-62
2023/07/28 08:54:23;;;;;;;3.95;1.70;;;23.10;66.70;;;;;;6108656;28;81969;-62
2023/07/28 08:57:23;;;;;;;2.88;2.05;;;22.80;67.40;;;;;;6113031;28;81124;-64
2023/07/28 09:00:24;;;;;;;2.95;2.17;;;22.60;68.50;;;;;;6124037;28;80993;-61
2023/07/28 09:03:27;;;;;;;4.72;2.00;;;22.50;69.30;;;;;;6100985;28;82783;-61
2023/07/28 09:06:27;;;;;;;2.90;2.45;;;22.50;69.80;;;;;;6125126;28;80557;-67
2023/07/28 09:09:28;;;;;;;3.92;2.00;;;22.40;70.00;;;;;;6119122;28;82983;-62
2023/07/28 09:12:28;;;;;;;2.83;2.03;;;22.30;70.40;;;;;;6124980;28;80516;-63
2023/07/28 09:15:29;;;;;;;2.58;2.30;;;22.20;71.60;;;;;;6116123;28;82417;-62
2023/07/28 09:18:29;;;;;;;1.95;1.80;;;22.10;72.50;;;;;;6120956;28;81568;-61
2023/07/28 09:21:30;;;;;;;2.85;2.55;;;22.00;73.30;;;;;;6114721;28;80972;-61
2023/07/28 09:24:32;;;;;;;6.25;2.50;;;22.10;74.20;;;;;;6098733;28;81165;-60
2023/07/28 09:27:32;;;;;;;2.63;2.20;;;22.10;74.40;;;;;;6125487;28;80580;-63
2023/07/28 09:30:33;;;;;;;5.30;2.00;;;22.00;74.80;;;;;;6108391;28;83025;-63
2023/07/28 09:33:33;;;;;;;3.30;2.50;;;22.00;75.30;;;;;;6124608;28;83276;-62
2023/07/28 09:36:34;;;;;;;3.67;2.45;;;21.90;76.00;;;;;;6119309;28;82577;-60
2023/07/28 09:39:34;;;;;;;4.47;2.08;;;21.90;76.00;;;;;;6104544;28;81914;-60
2023/07/28 09:42:35;;;;;;;2.35;2.10;;;21.90;75.80;;;;;;6120788;28;81632;-60
2023/07/28 09:45:35;;;;;;;2.42;2.00;;;21.90;75.60;;;;;;6111119;28;82963;-61
2023/07/28 09:48:36;;;;;;;3.20;2.00;;;22.00;75.00;;;;;;6115026;28;81263;-62
2023/07/28 09:51:36;;;;;;;3.63;2.08;;;22.10;74.40;;;;;;6097967;28;87761;-60
2023/07/28 09:54:37;;;;;;;3.47;2.08;;;22.20;73.90;;;;;;6109787;28;80535;-59
2023/07/28 09:57:37;;;;;;;3.15;2.17;;;22.20;73.90;;;;;;6105226;28;82711;-59
2023/07/28 10:00:38;;;;;;;4.88;2.67;;;22.30;73.80;;;;;;6119967;28;81247;-60
2023/07/28 10:03:39;;;;;;;2.53;2.33;;;22.30;73.30;;;;;;6120596;28;82986;-59
2023/07/28 10:06:40;;;;;;;4.30;2.50;;;22.60;72.50;;;;;;6115195;28;80851;-59
2023/07/28 10:09:40;;;;;;;3.10;2.33;;;22.70;71.40;;;;;;6128685;28;80877;-61
2023/07/28 10:12:42;;;;;;;5.13;2.83;;;22.90;70.70;;;;;;6119539;28;84063;-60
2023/07/28 10:15:42;;;;;;;4.82;2.65;;;23.00;70.60;;;;;;6129631;28;80552;-60
2023/07/28 10:18:44;;;;;;;2.83;2.33;;;23.00;69.80;;;;;;6109284;28;80937;-59
2023/07/28 10:21:45;;;;;;;3.08;2.47;;;23.10;69.70;;;;;;6106074;28;81237;-60
2023/07/28 10:24:45;;;;;;;3.58;2.42;;;23.10;70.20;;;;;;6123747;28;82723;-59
2023/07/28 10:27:46;;;;;;;4.47;2.33;;;23.20;69.80;;;;;;6111296;28;82309;-58
2023/07/28 10:30:47;;;;;;;2.20;2.00;;;23.30;69.90;;;;;;6111971;28;81380;-58
2023/07/28 10:33:48;;;;;;;4.30;3.08;;;23.50;69.90;;;;;;6117517;28;82635;-62
2023/07/28 10:36:48;;;;;;;4.80;2.38;;;23.60;69.50;;;;;;6128290;28;80520;-61
2023/07/28 10:39:49;;;;;;;3.67;2.50;;;23.70;69.20;;;;;;6118616;28;81754;-60
2023/07/28 10:42:49;;;;;;;2.90;2.22;;;23.70;68.70;;;;;;6127516;28;80528;-59
2023/07/28 10:45:50;;;;;;;4.50;2.15;;;23.80;68.60;;;;;;6119670;28;80123;-60
2023/07/28 10:48:50;;;;;;;3.60;1.88;;;23.90;68.20;;;;;;6118140;28;81326;-60
2023/07/28 10:51:51;;;;;;;3.42;2.20;;;23.90;67.90;;;;;;6122579;28;80453;-60
2023/07/28 10:54:51;;;;;;;7.10;2.00;;;23.90;67.50;;;;;;6121484;28;83004;-58
2023/07/28 10:57:52;;;;;;;2.85;1.90;;;23.90;67.40;;;;;;6127430;28;81146;-61
2023/07/28 11:00:52;;;;;;;3.17;1.98;;;23.90;67.30;;;;;;6115886;28;80512;-66
2023/07/28 11:03:53;;;;;;;3.42;1.98;;;24.00;67.30;;;;;;6122633;28;80846;-60
2023/07/28 11:06:53;;;;;;;1.73;1.60;;;24.00;67.20;;;;;;6116072;28;80450;-60
2023/07/28 11:09:54;;;;;;;9.05;1.60;;;24.00;67.20;;;;;;6100829;28;80453;-62
2023/07/28 11:12:55;;;;;;;4.03;1.52;;;24.00;66.80;;;;;;6123409;28;81024;-65
2023/07/28 11:15:55;;;;;;;1.80;1.48;;;24.00;67.70;;;;;;6109645;28;81368;-63
2023/07/28 11:18:57;;;;;;;4.03;1.75;;;24.10;66.60;;;;;;6109291;28;82683;-69
2023/07/28 11:21:58;;;;;;;2.13;1.60;;;24.10;66.70;;;;;;6095079;28;81255;-61
2023/07/28 11:24:58;;;;;;;6.93;1.42;;;24.10;66.60;;;;;;6114335;28;82304;-61
2023/07/28 11:27:59;;;;;;;1.40;1.30;;;24.10;66.60;;;;;;6143279;28;80359;-60
2023/07/28 11:30:59;;;;;;;1.80;1.33;;;24.10;66.60;;;;;;6120175;28;81365;-60
2023/07/28 11:34:00;;;;;;;1.38;1.27;;;24.10;66.80;;;;;;6131180;28;80223;-58
2023/07/28 11:37:01;;;;;;;0.98;0.80;;;24.10;67.00;;;;;;6114183;28;81718;-60
2023/07/28 11:40:01;;;;;;;3.65;1.00;;;24.10;67.10;;;;;;6108168;28;81016;-60
2023/07/28 11:43:02;;;;;;;3.38;1.20;;;24.20;66.90;;;;;;6102227;28;80411;-61
2023/07/28 11:46:03;;;;;;;1.25;1.02;;;24.30;66.40;;;;;;6126404;28;80498;-60
2023/07/28 11:49:03;;;;;;;1.70;1.10;;;24.40;66.10;;;;;;6127846;28;80566;-59
2023/07/28 11:52:06;;;;;;;1.92;1.20;;;24.50;65.80;;;;;;6109693;28;85537;-61
2023/07/28 11:55:06;;;;;;;1.27;1.10;;;24.50;65.60;;;;;;6122886;28;80518;-59
2023/07/28 11:58:07;;;;;;;1.27;1.17;;;24.30;66.10;;;;;;6111381;28;82594;-60
2023/07/28 12:01:08;;;;;;;2.60;1.05;;;24.20;67.00;;;;;;6118535;28;80348;-65
2023/07/28 12:04:09;;;;;;;2.15;1.10;;;24.10;67.40;;;;;;6103087;28;80851;-60
2023/07/28 12:07:11;;;;;;;1.38;1.13;;;24.10;68.00;;;;;;6126231;28;80644;-61
2023/07/28 12:10:13;;;;;;;1.73;1.10;;;24.00;67.80;;;;;;6122327;28;80903;-60
2023/07/28 12:13:13;;;;;;;1.40;0.88;;;24.00;67.80;;;;;;6105280;28;82391;-61
2023/07/28 12:16:14;;;;;;;0.80;0.80;;;24.10;68.00;;;;;;6118483;28;80349;-59
2023/07/28 12:19:14;;;;;;;2.78;1.10;;;24.10;68.20;;;;;;6097560;28;80470;-60
2023/07/28 12:22:15;;;;;;;0.80;0.80;;;24.20;67.20;;;;;;6102821;28;81138;-62
2023/07/28 12:25:15;;;;;;;1.25;1.00;;;24.30;67.70;;;;;;6095412;28;83112;-62
2023/07/28 12:28:16;;;;;;;1.42;1.33;;;24.30;67.40;;;;;;6121609;28;81131;-63
2023/07/28 12:31:16;;;;;;;2.25;1.05;;;24.20;67.60;;;;;;6119718;28;80334;-63
2023/07/28 12:34:17;;;;;;;1.17;1.08;;;24.20;68.40;;;;;;6099873;28;82930;-65
2023/07/28 12:37:18;;;;;;;1.55;1.20;;;24.30;68.30;;;;;;6107586;28;80507;-64
2023/07/28 12:40:19;;;;;;;1.73;1.33;;;24.30;68.10;;;;;;6101780;28;82222;-67
2023/07/28 12:43:19;;;;;;;3.35;1.08;;;24.30;67.70;;;;;;6122556;28;82487;-67
2023/07/28 12:46:20;;;;;;;1.30;1.00;;;24.40;68.30;;;;;;6104630;28;82096;-66
2023/07/28 12:49:20;;;;;;;2.45;0.90;;;24.50;67.20;;;;;;6125343;28;80745;-66
2023/07/28 12:52:21;;;;;;;1.67;1.02;;;24.40;67.50;;;;;;6134289;28;81346;-64
2023/07/28 12:55:21;;;;;;;1.05;0.95;;;24.50;67.40;;;;;;6121363;28;82196;-65
2023/07/28 12:58:22;;;;;;;2.63;1.10;;;24.40;67.30;;;;;;6128158;28;80723;-61
2023/07/28 13:01:22;;;;;;;1.25;1.15;;;24.40;67.80;;;;;;6115730;28;81270;-59
2023/07/28 13:04:23;;;;;;;1.33;1.10;;;24.40;68.70;;;;;;6124614;28;81033;-59
2023/07/28 13:07:24;;;;;;;1.25;1.08;;;24.40;68.60;;;;;;6113227;28;81379;-60
2023/07/28 13:10:24;;;;;;;1.38;0.93;;;24.30;68.30;;;;;;6132235;28;81147;-60
2023/07/28 13:13:25;;;;;;;1.30;1.15;;;24.30;68.70;;;;;;6126441;28;80737;-60
2023/07/28 13:16:25;;;;;;;6.05;1.17;;;24.40;68.90;;;;;;6110262;28;82074;-63
2023/07/28 13:19:26;;;;;;;1.77;0.93;;;24.40;69.20;;;;;;6123194;28;80579;-69
2023/07/28 13:22:27;;;;;;;2.58;1.10;;;24.40;69.10;;;;;;6110291;28;81697;-69
2023/07/28 13:25:27;;;;;;;1.20;1.00;;;24.50;69.40;;;;;;6109613;28;83524;-70
2023/07/28 13:28:28;;;;;;;0.90;0.90;;;24.60;69.60;;;;;;6134925;28;81467;-67
2023/07/28 13:31:28;;;;;;;0.93;0.93;;;24.40;69.30;;;;;;6131357;28;81173;-69
2023/07/28 13:34:29;;;;;;;1.52;1.00;;;24.40;69.60;;;;;;6122407;28;80456;-67
2023/07/28 13:37:29;;;;;;;1.67;1.15;;;24.40;69.60;;;;;;6117366;28;81524;-60
2023/07/28 13:40:30;;;;;;;1.42;1.13;;;24.50;70.00;;;;;;6129643;28;82766;-60
2023/07/28 13:43:30;;;;;;;2.42;1.13;;;24.60;69.50;;;;;;6121491;28;80370;-59
2023/07/28 13:46:31;;;;;;;1.10;1.00;;;24.70;69.30;;;;;;6122464;28;81136;-62
2023/07/28 13:49:35;;;;;;;1.10;0.98;;;24.70;69.20;;;;;;6103194;28;83437;-60
2023/07/28 13:52:35;;;;;;;1.13;1.00;;;24.80;69.20;;;;;;6118840;28;81938;-59
2023/07/28 13:55:36;;;;;;;5.22;1.00;;;24.80;68.50;;;;;;6108218;28;80906;-60
2023/07/28 13:58:37;;;;;;;3.38;1.00;;;24.70;69.60;;;;;;6109416;28;82419;-60
2023/07/28 14:01:38;;;;;;;0.95;0.90;;;24.80;69.20;;;;;;6126753;28;81787;-60
2023/07/28 14:04:39;;;;;;;2.83;1.10;;;24.90;68.80;;;;;;6112645;28;80510;-60
2023/07/28 14:07:39;;;;;;;1.13;0.90;;;24.90;68.20;;;;;;6128100;28;80649;-61
2023/07/28 14:10:40;;;;;;;1.00;0.90;;;24.80;67.50;;;;;;6114973;28;80735;-60
2023/07/28 14:13:40;;;;;;;1.42;1.00;;;24.80;67.40;;;;;;6113322;28;82789;-60
2023/07/28 14:16:42;;;;;;;1.17;1.08;;;24.80;67.40;;;;;;6128754;28;84226;-59
2023/07/28 14:19:42;;;;;;;1.05;0.80;;;24.80;67.40;;;;;;6108432;28;84377;-60
2023/07/28 14:22:43;;;;;;;2.75;1.17;;;24.80;67.30;;;;;;6143837;28;81263;-60
2023/07/28 14:25:44;;;;;;;1.35;1.25;;;24.90;67.40;;;;;;6120236;28;81109;-59
2023/07/28 14:28:44;;;;;;;1.92;1.05;;;24.90;67.20;;;;;;6116121;28;81607;-61
2023/07/28 14:31:45;;;;;;;2.22;1.20;;;24.90;67.00;;;;;;6119023;28;84721;-60
2023/07/28 14:34:45;;;;;;;1.27;1.15;;;24.90;66.20;;;;;;6146152;28;80833;-61
2023/07/28 14:37:46;;;;;;;1.77;1.20;;;24.90;66.50;;;;;;6143874;28;82481;-58
2023/07/28 14:40:48;;;;;;;1.35;1.15;;;24.90;66.60;;;;;;6117254;28;81476;-59
2023/07/28 14:43:49;;;;;;;1.50;1.40;;;24.90;66.70;;;;;;6121442;28;80612;-60
2023/07/28 14:46:49;;;;;;;2.90;1.30;;;24.80;66.60;;;;;;6114404;28;80948;-60
2023/07/28 14:49:50;;;;;;;2.50;1.25;;;24.80;66.80;;;;;;6123065;28;80948;-61
2023/07/28 14:52:50;;;;;;;1.92;1.00;;;24.80;67.00;;;;;;6111446;28;81329;-60
2023/07/28 14:55:51;;;;;;;2.15;1.42;;;24.90;67.00;;;;;;6133219;28;80648;-59
2023/07/28 14:58:53;;;;;;;1.17;1.08;;;24.80;67.00;;;;;;6127469;28;81237;-59
2023/07/28 15:01:53;;;;;;;1.42;1.20;;;24.90;67.10;;;;;;6110228;28;82193;-61
2023/07/28 15:04:54;;;;;;;1.70;1.10;;;24.90;66.70;;;;;;6120060;28;81808;-60
2023/07/28 15:07:56;;;;;;;1.88;1.10;;;24.80;66.00;;;;;;6099327;28;80897;-61
2023/07/28 15:10:56;;;;;;;1.38;1.10;;;24.80;65.40;;;;;;6102447;28;80569;-60
2023/07/28 15:13:57;;;;;;;1.10;1.00;;;24.80;65.50;;;;;;6101331;28;81038;-61
2023/07/28 15:16:57;;;;;;;1.48;1.38;;;24.70;65.40;;;;;;6115019;28;91614;-59
2023/07/28 15:19:58;;;;;;;1.58;1.33;;;24.70;65.20;;;;;;6110274;28;82400;-62
2023/07/28 15:22:59;;;;;;;1.20;1.10;;;24.80;65.20;;;;;;6104990;28;81930;-60
2023/07/28 15:25:59;;;;;;;1.48;1.00;;;24.70;65.30;;;;;;6145776;28;80936;-60
2023/07/28 15:29:00;;;;;;;2.97;1.02;;;24.70;65.20;;;;;;6100336;28;81722;-61
2023/07/28 15:32:01;;;;;;;10.32;1.60;;;24.70;64.90;;;;;;6113308;28;81523;-58
2023/07/28 15:35:02;;;;;;;1.65;1.27;;;24.70;65.10;;;;;;6120331;28;86128;-61
2023/07/28 15:38:03;;;;;;;1.65;1.35;;;24.70;65.00;;;;;;6113842;28;83702;-60
2023/07/28 15:41:04;;;;;;;2.85;1.33;;;24.70;65.00;;;;;;6114666;28;80799;-59